Bei Facebook empfehlenBei Twitter postenGoogle plusPinterest

Das Wetter im Erzgebirge am 15.08.2016

Wetter und Klima am 15.08.2016 Holzhau im Erzgebirge (630m ü.NN)
Letzte gemessene Temperatur und Uhrzeit der Messung23:45:00 Uhr7.80 °C
Temperatur (Maximum / Höchstwert) und Uhrzeit der Messung12:45:00 Uhr21.90 °C
Temperatur (Minimum / Tiefstwert) und Uhrzeit der Messung03:45:007.20 °C
Errechneter Absolutwert der Temperaturschwankungen zwischen Tmin und Tmax des Tages14.70 K
Errechnete Tagesmitteltemperatur14.08021 °C
Gesamt - Niederschlag des Tages (in flüssiger Form)0.00 Liter / m²
Luftdruck (Maximum / Höchstwert) und Zeitpunkt der Messung01:15:00 Uhr1020.30 hPa
Luftdruck (Minimum / Tiefstwert) und Zeitpunkt der Messung22:45:00 Uhr1018.30 hPa
Errechneter Absolutwert der Luftdruckschwankungen des Tages2.00 hPa
Höchste gemessene Windgeschwindigkeit und Uhrzeit der Messung23:45:00 Uhr0.00 km/h
Errechnete Windhäufigkeit in Relation zu den Messwerten des Tages0.00000 %
Niedrigste Windkühle (Windchill) und Zeitpunkt der Messung03:45:00 Uhr7.20 °C
Taupunkt (Maximum / Höchstwert) und Uhrzeit der Messung10:45:00 Uhr15.60 °C
Taupunkt (Minimum / Tiefstwert) und Uhrzeit der Messung23:45:005.80 °C
Anzahl der automatisch eingelesenen Messwerte 96

Detaillierte Wetter- und Klima- Messwerte für den 15.08.2016 in Holzhau im Erzgebirge (630m ü.NN)
ZeitTemperaturLuftdruckRel. LuftfeuchteWindWindrichtungWindchillTaupunktNiederschlag l/m²
23:45:007.80 °C1018.50 hPa87.00 %5.80 °C 
23:30:007.90 °C1018.50 hPa87.00 %5.90 °C 
23:15:008.10 °C1018.40 hPa86.00 %5.90 °C 
23:00:008.30 °C1018.50 hPa86.00 %6.10 °C 
22:45:008.50 °C1018.30 hPa85.00 %6.10 °C 
22:30:008.80 °C1018.40 hPa84.00 %6.20 °C 
22:15:009.20 °C1018.40 hPa83.00 %6.50 °C 
22:00:009.60 °C1018.50 hPa82.00 %6.70 °C 
21:45:0010.10 °C1018.50 hPa82.00 %7.20 °C 
21:30:0010.50 °C1018.60 hPa80.00 %7.20 °C 
21:15:0011.10 °C1018.60 hPa79.00 %7.60 °C 
21:00:0011.70 °C1018.40 hPa78.00 %8.00 °C 
20:45:0012.40 °C1018.50 hPa77.00 %8.50 °C 
20:30:0013.10 °C1018.50 hPa75.00 %8.80 °C 
20:15:0013.90 °C1018.50 hPa74.00 %9.30 °C 
20:00:0014.80 °C1018.50 hPa73.00 %10.00 °C 
19:45:0015.30 °C1018.40 hPa71.00 %10.10 °C 
19:30:0015.90 °C1018.50 hPa70.00 %10.40 °C 
19:15:0016.50 °C1018.50 hPa67.00 %10.40 °C 
19:00:0017.10 °C1018.60 hPa67.00 %10.90 °C 
18:45:0017.60 °C1018.60 hPa66.00 %11.20 °C 
18:30:0018.10 °C1018.70 hPa65.00 %11.40 °C 
18:15:0018.50 °C1018.90 hPa64.00 %11.60 °C 
18:00:0019.00 °C1018.80 hPa62.00 %11.60 °C 
17:45:0019.90 °C1018.80 hPa61.00 %12.20 °C 
17:30:0020.10 °C1018.70 hPa62.00 %12.60 °C 
17:15:0019.90 °C1018.60 hPa63.00 %12.70 °C 
17:00:0020.10 °C1018.80 hPa63.00 %12.80 °C 
16:45:0020.10 °C1019.00 hPa61.00 %12.30 °C 
16:30:0020.40 °C1019.00 hPa62.00 %12.90 °C 
16:15:0020.10 °C1019.20 hPa62.00 %12.60 °C 
16:00:0021.10 °C1019.20 hPa60.00 %13.00 °C 
15:45:0021.10 °C1019.20 hPa60.00 %13.00 °C 
15:30:0021.60 °C1019.40 hPa60.00 %13.50 °C 
15:15:0021.20 °C1019.30 hPa63.00 %13.90 °C 
15:00:0020.60 °C1019.20 hPa63.00 %13.30 °C 
14:45:0020.80 °C1019.30 hPa62.00 %13.30 °C 
14:30:0020.40 °C1019.50 hPa63.00 %13.10 °C 
14:15:0020.90 °C1019.30 hPa60.00 %12.80 °C 
14:00:0021.80 °C1019.40 hPa62.00 %14.20 °C 
13:45:0021.40 °C1019.60 hPa63.00 %14.10 °C 
13:30:0020.80 °C1019.60 hPa65.00 %14.00 °C 
13:15:0020.70 °C1019.40 hPa63.00 %13.40 °C 
13:00:0020.20 °C1019.50 hPa63.00 %12.90 °C 
12:45:0021.90 °C1019.50 hPa61.00 %14.00 °C 
12:30:0021.80 °C1019.70 hPa64.00 %14.70 °C 
12:15:0021.10 °C1019.70 hPa63.00 %13.80 °C 
12:00:0021.80 °C1019.80 hPa65.00 %14.90 °C 
11:45:0021.10 °C1020.00 hPa66.00 %14.50 °C 
11:30:0021.40 °C1019.90 hPa68.00 %15.30 °C 
11:15:0020.90 °C1019.80 hPa71.00 %15.40 °C 
11:00:0020.10 °C1020.00 hPa74.00 %15.30 °C 
10:45:0020.00 °C1020.00 hPa76.00 %15.60 °C 
10:30:0018.90 °C1020.00 hPa78.00 %15.00 °C 
10:15:0018.30 °C1020.10 hPa80.00 %14.80 °C 
10:00:0017.80 °C1020.00 hPa83.00 %14.90 °C 
09:45:0017.50 °C1019.90 hPa85.00 %15.00 °C 
09:30:0017.10 °C1019.90 hPa88.00 %15.10 °C 
09:15:0016.70 °C1019.80 hPa90.00 %15.10 °C 
09:00:0016.10 °C1020.10 hPa92.00 %14.80 °C 
08:45:0015.30 °C1020.20 hPa93.00 %14.20 °C 
08:30:0014.30 °C1020.00 hPa94.00 %13.30 °C 
08:15:0013.20 °C1019.80 hPa94.00 %12.30 °C 
08:00:0012.10 °C1019.80 hPa94.00 %11.20 °C 
07:45:0011.30 °C1019.80 hPa94.00 %10.40 °C 
07:30:0010.50 °C1019.70 hPa94.00 %9.60 °C 
07:15:009.90 °C1019.80 hPa94.00 %9.00 °C 
07:00:009.50 °C1019.70 hPa94.00 %8.60 °C 
06:45:009.20 °C1019.70 hPa94.00 %8.30 °C 
06:30:008.90 °C1019.60 hPa94.00 %8.00 °C 
06:15:008.70 °C1019.60 hPa93.00 %7.60 °C 
06:00:008.60 °C1019.70 hPa93.00 %7.50 °C 
05:45:008.40 °C1019.70 hPa93.00 %7.30 °C 
05:30:008.20 °C1019.70 hPa93.00 %7.10 °C 
05:15:008.10 °C1019.80 hPa93.00 %7.00 °C 
05:00:007.90 °C1019.90 hPa93.00 %6.80 °C 
04:45:007.80 °C1020.00 hPa93.00 %6.70 °C 
04:30:007.60 °C1019.90 hPa93.00 %6.50 °C 
04:15:007.40 °C1020.10 hPa92.00 %6.20 °C 
04:00:007.30 °C1020.00 hPa92.00 %6.10 °C 
03:45:007.20 °C1020.10 hPa92.00 %6.00 °C 
03:30:007.30 °C1020.00 hPa92.00 %6.10 °C 
03:15:007.40 °C1020.10 hPa92.00 %6.20 °C 
03:00:007.40 °C1020.10 hPa92.00 %6.20 °C 
02:45:007.50 °C1020.10 hPa92.00 %6.30 °C 
02:30:007.60 °C1020.20 hPa91.00 %6.20 °C 
02:15:007.80 °C1020.10 hPa91.00 %6.40 °C 
02:00:007.80 °C1020.10 hPa91.00 %6.40 °C 
01:45:007.90 °C1020.10 hPa91.00 %6.50 °C 
01:30:008.10 °C1020.20 hPa91.00 %6.70 °C 
01:15:008.20 °C1020.30 hPa90.00 %6.70 °C 
01:00:008.40 °C1020.10 hPa90.00 %6.90 °C 
00:45:008.60 °C1020.10 hPa90.00 %7.10 °C 
00:30:008.80 °C1020.10 hPa89.00 %7.10 °C 
00:15:008.90 °C1020.10 hPa89.00 %7.20 °C 
00:00:009.10 °C1020.00 hPa89.00 %7.40 °C 

Permanenter Link zu dieser Seite: Wetter im Erzgebirge am 15.08.2016
Performance-Info: Die Erstellung der Seite / Statistik(en) / Tabelle(n) erforderte 5 Datenbankserver-Abfrage(n) und dauerte 103 Millisekunden. (Dieser Messwert ist von der Gesamt-Auslastung des Servers abhängig.)
Erzgebirge - Wetter | Erzgebirge - Wetter (Mobilgeräte) | Komplette Klimadatenbank